EST,Max TemperatureF,Mean TemperatureF,Min TemperatureF,Max Dew PointF,MeanDew PointF,Min DewpointF,Max Humidity, Mean Humidity, Min Humidity, Max Sea Level PressureIn, Mean Sea Level PressureIn, Min Sea Level PressureIn, Max VisibilityMiles, Mean VisibilityMiles, Min VisibilityMiles, Max Wind SpeedMPH, Mean Wind SpeedMPH, Max Gust SpeedMPH,PrecipitationIn, CloudCover, Events, WindDirDegrees
2013-2-1,33,28,22,29,13,4,94,52,36,30.40,30.09,29.82,10,10,1,21,6,30,0.00,4,,300
2013-2-2,33,26,20,30,15,6,96,63,41,30.40,30.24,30.03,10,9,1,9,4,16,0.00,5,,214
2013-2-3,35,29,23,32,28,20,100,88,55,30.02,29.92,29.85,10,8,1,12,1,25,0.00,6,,231
2013-2-4,37,30,24,27,19,13,75,56,40,30.12,30.01,29.91,10,10,10,10,5,21,0.00,4,,242
2013-2-5,42,36,31,32,29,24,87,73,59,29.95,29.90,29.86,10,10,10,5,1,,0.00,6,,39
2013-2-6,47,38,28,33,29,26,100,71,44,30.37,30.16,29.95,10,9,2,15,3,23,0.00,3,,322
2013-2-7,40,33,26,32,27,25,96,76,58,30.46,30.38,30.23,10,10,7,7,2,,0.00,5,,87
2013-2-8,44,38,34,42,35,24,100,85,58,30.22,29.91,29.75,10,8,3,24,6,38,0.00,7,,337
2013-2-9,43,35,27,24,20,15,81,53,36,30.40,30.20,29.93,10,10,10,18,12,36,0.00,2,,321
2013-2-10,48,34,21,28,19,14,97,56,25,30.50,30.40,30.28,10,10,10,9,2,,0.00,0,,147
2013-2-11,55,46,37,53,44,29,100,96,68,30.26,29.97,29.71,10,7,0,9,2,,0.00,6,,188
2013-2-12,58,50,41,42,31,28,100,49,31,30.00,29.93,29.81,10,10,7,16,6,22,0.00,0,,298
2013-2-13,48,40,31,38,33,29,100,81,52,29.97,29.80,29.67,10,8,3,9,2,,0.00,6,,28
2013-2-14,51,42,32,37,31,24,100,73,37,30.03,29.96,29.78,10,8,0,14,3,18,0.00,1,,297
2013-2-15,61,46,30,39,34,28,100,74,30,30.04,29.99,29.89,10,8,2,17,2,25,0.00,3,,252
2013-2-16,40,37,34,38,32,18,100,80,50,30.03,29.93,29.84,10,9,5,12,3,17,0.00,8,,350
2013-2-17,34,30,27,20,13,7,60,47,36,30.21,29.98,29.84,10,10,10,21,11,33,0.00,3,,299
2013-2-18,43,33,23,25,12,7,77,44,27,30.39,30.29,30.18,10,10,10,17,7,24,0.00,0,,262
2013-2-19,47,38,28,44,32,23,91,73,50,30.18,29.93,29.74,10,10,7,12,4,23,0.00,4,,202
2013-2-20,40,34,28,24,16,10,53,46,37,30.17,30.02,29.86,10,10,10,17,9,30,0.00,3,,298
2013-2-21,41,34,26,21,16,12,69,50,37,30.34,30.21,30.14,10,10,10,17,8,26,0.00,1,,305
2013-2-22,36,34,32,34,26,19,100,74,57,30.40,30.32,30.23,10,9,3,9,2,,0.00,5,,76
2013-2-23,47,40,34,47,41,34,100,100,97,30.23,29.98,29.82,10,4,1,7,1,,0.00,8,,351
2013-2-24,53,44,35,45,33,21,100,68,35,30.12,29.92,29.80,10,8,3,17,7,30,0.00,3,,319
2013-2-25,49,38,27,31,25,22,91,60,39,30.23,30.18,30.12,10,10,10,9,4,17,0.00,0,,336
2013-2-26,46,38,29,47,36,27,100,91,66,30.24,30.02,29.62,10,8,3,16,3,26,0.00,5,,67
2013-2-27,57,50,42,47,41,34,100,75,43,29.70,29.62,29.52,10,8,2,12,5,17,0.00,7,,304
2013-2-28,50,46,42,42,32,26,98,61,39,29.74,29.68,29.65,10,10,10,14,5,21,0.00,6,,294